createdAt,value
2018-02-03T00:00:14.293Z,8.85
2018-02-03T00:01:06.719Z,8.75
2018-02-03T00:03:10.488Z,8.88
2018-02-03T00:03:55.895Z,8.78
2018-02-03T00:04:44.969Z,8.82
2018-02-03T00:05:33.747Z,8.83
2018-02-03T00:06:22.301Z,8.76
2018-02-03T00:07:11.339Z,8.78
2018-02-03T00:07:59.804Z,8.68
2018-02-03T00:08:48.714Z,8.83
2018-02-03T00:09:38.980Z,8.76
2018-02-03T00:10:32.800Z,8.73
2018-02-03T00:11:28.795Z,8.71
2018-02-03T00:12:17.202Z,8.58
2018-02-03T00:13:07.915Z,8.65
2018-02-03T00:13:56.234Z,8.54
2018-02-03T00:14:53.230Z,8.47
2018-02-03T00:15:42.426Z,8.54
2018-02-03T00:16:33.163Z,8.54
2018-02-03T00:17:22.775Z,8.42
2018-02-03T00:18:11.975Z,8.47
2018-02-03T00:19:00.353Z,8.47
2018-02-03T00:19:55.114Z,8.45
2018-02-03T00:20:43.616Z,8.55
2018-02-03T00:21:32.517Z,8.54
2018-02-03T00:22:20.414Z,8.52
2018-02-03T00:23:09.716Z,8.49
2018-02-03T00:25:56.009Z,8.64
2018-02-03T00:27:00.315Z,8.65
2018-02-03T00:28:56.694Z,8.76
2018-02-03T00:29:44.575Z,8.71
2018-02-03T00:30:33.423Z,8.67
2018-02-03T00:31:23.929Z,8.65
2018-02-03T00:32:14.232Z,8.67
2018-02-03T00:32:56.807Z,8.54
2018-02-03T00:33:39.036Z,8.57
2018-02-03T00:34:20.038Z,8.6
2018-02-03T00:35:01.556Z,8.49
2018-02-03T00:35:42.587Z,8.5
2018-02-03T00:36:22.973Z,8.54
2018-02-03T00:37:03.965Z,8.52
2018-02-03T00:37:47.444Z,8.55
2018-02-03T00:38:27.442Z,8.63
2018-02-03T00:39:07.814Z,8.63
2018-02-03T00:39:48.217Z,8.54
2018-02-03T00:40:28.751Z,8.63
2018-02-03T00:41:09.171Z,8.46
2018-02-03T00:41:49.560Z,8.45
2018-02-03T00:42:29.933Z,8.45
2018-02-03T00:43:10.954Z,8.49
2018-02-03T00:43:55.738Z,8.54
2018-02-03T00:44:36.150Z,8.39
2018-02-03T00:45:16.556Z,8.37
2018-02-03T00:45:56.969Z,8.12
2018-02-03T00:46:37.393Z,8.14
2018-02-03T00:47:18.139Z,8.13
2018-02-03T00:48:01.236Z,8.17
2018-02-03T00:48:42.160Z,8.2
2018-02-03T00:49:22.535Z,8.17
2018-02-03T00:50:03.586Z,8.14
2018-02-03T00:50:44.224Z,8.18
2018-02-03T00:51:26.210Z,8.1
2018-02-03T00:52:07.666Z,8.04
2018-02-03T00:52:48.309Z,8.04
2018-02-03T00:53:28.663Z,8.2
2018-02-03T00:54:09.141Z,8.13
2018-02-03T00:54:52.992Z,8.14
2018-02-03T00:55:38.813Z,8.18
2018-02-03T00:56:20.651Z,8.13
2018-02-03T00:57:01.374Z,8.04
2018-02-03T00:57:42.074Z,8.06
2018-02-03T00:58:23.465Z,7.96
2018-02-03T00:59:03.832Z,8.02
2018-02-03T01:00:46.350Z,7.95
2018-02-03T01:01:38.704Z,7.96
2018-02-03T01:02:39.761Z,7.96
2018-02-03T01:04:31.296Z,7.85
2018-02-03T01:05:19.881Z,7.85
2018-02-03T01:06:08.390Z,7.91
2018-02-03T01:06:57.069Z,7.82
2018-02-03T01:07:37.080Z,7.82
2018-02-03T01:08:19.013Z,7.81
2018-02-03T01:08:59.270Z,7.84
2018-02-03T01:10:52.227Z,7.84
2018-02-03T01:11:45.115Z,7.81
2018-02-03T01:13:22.914Z,7.84
2018-02-03T01:14:11.911Z,7.79
2018-02-03T01:15:00.386Z,7.71
2018-02-03T01:16:59.973Z,7.74
2018-02-03T01:17:49.559Z,7.81
2018-02-03T01:18:38.424Z,7.71
2018-02-03T01:19:26.839Z,7.66
2018-02-03T01:20:17.536Z,7.67
2018-02-03T01:21:06.043Z,7.66
2018-02-03T01:21:56.253Z,7.58
2018-02-03T01:22:46.358Z,7.6
2018-02-03T01:23:35.552Z,7.58
2018-02-03T01:24:23.089Z,7.58
2018-02-03T01:25:13.612Z,7.58
2018-02-03T01:26:01.146Z,7.57
2018-02-03T01:26:49.703Z,7.5
2018-02-03T01:27:38.706Z,7.5
2018-02-03T01:28:25.700Z,7.54
2018-02-03T01:29:15.566Z,7.58
2018-02-03T01:30:04.444Z,7.52
2018-02-03T01:30:53.136Z,7.63
2018-02-03T01:31:37.330Z,7.55
2018-02-03T01:32:19.772Z,7.69
2018-02-03T01:33:00.144Z,7.51
2018-02-03T01:33:41.105Z,7.6
2018-02-03T01:34:23.574Z,7.55
2018-02-03T01:35:07.746Z,7.54
2018-02-03T01:35:48.903Z,7.54
2018-02-03T01:36:30.411Z,7.55
2018-02-03T01:37:10.857Z,7.54
2018-02-03T01:37:52.871Z,7.57
2018-02-03T01:38:33.557Z,7.52
2018-02-03T01:39:14.928Z,7.6
2018-02-03T01:39:56.984Z,7.47
2018-02-03T01:40:37.550Z,7.36
2018-02-03T01:41:19.464Z,7.34
2018-02-03T01:42:01.831Z,7.39
2018-02-03T01:42:42.068Z,7.33
2018-02-03T01:43:25.041Z,7.3
2018-02-03T01:44:05.461Z,7.34
2018-02-03T01:44:45.858Z,7.39
2018-02-03T01:45:26.381Z,7.48
2018-02-03T01:46:07.141Z,7.54
2018-02-03T01:46:47.449Z,7.58
2018-02-03T01:47:28.784Z,7.51
2018-02-03T01:48:10.940Z,7.62
2018-02-03T01:48:51.326Z,7.6
2018-02-03T01:49:31.718Z,7.69
2018-02-03T01:50:12.117Z,7.66
2018-02-03T01:50:52.513Z,7.74
2018-02-03T01:51:34.900Z,7.7
2018-02-03T01:52:15.277Z,7.7
2018-02-03T01:52:55.726Z,7.7
2018-02-03T01:53:41.322Z,7.81
2018-02-03T01:54:21.774Z,7.81
2018-02-03T01:56:21.374Z,7.89
2018-02-03T01:57:09.968Z,7.85
2018-02-03T01:57:58.794Z,7.85
2018-02-03T01:58:47.320Z,7.94
2018-02-03T01:59:35.861Z,7.88
2018-02-03T02:00:24.491Z,7.91
2018-02-03T02:01:13.140Z,7.92
2018-02-03T02:02:01.435Z,7.92
2018-02-03T02:02:49.844Z,8.06
2018-02-03T02:03:38.243Z,8.07
2018-02-03T02:04:26.912Z,8.18
2018-02-03T02:05:16.437Z,8.17
2018-02-03T02:06:04.356Z,8.18
2018-02-03T02:06:53.478Z,8.2
2018-02-03T02:07:44.720Z,8.31
2018-02-03T02:08:33.634Z,8.18
2018-02-03T02:09:23.760Z,8.24
2018-02-03T02:10:14.164Z,8.2
2018-02-03T02:11:05.972Z,8.18
2018-02-03T02:11:53.596Z,8.21
2018-02-03T02:12:42.158Z,8.17
2018-02-03T02:13:30.251Z,8.24
2018-02-03T02:14:19.223Z,8.17
2018-02-03T02:15:08.422Z,8.27
2018-02-03T02:15:53.895Z,8.24
2018-02-03T02:16:34.171Z,8.2
2018-02-03T02:17:15.867Z,8.14
2018-02-03T02:17:57.387Z,8.09
2018-02-03T02:18:36.927Z,7.99
2018-02-03T02:19:18.989Z,7.95
2018-02-03T02:21:18.985Z,7.96
2018-02-03T02:22:07.359Z,8
2018-02-03T02:22:56.107Z,8.04
2018-02-03T02:23:44.763Z,8.03
2018-02-03T02:24:34.410Z,8.04
2018-02-03T02:25:22.372Z,8.07
2018-02-03T02:26:10.917Z,8.2
2018-02-03T02:26:59.406Z,8.18
2018-02-03T02:27:48.130Z,8.2
2018-02-03T02:28:36.531Z,8.14
2018-02-03T02:29:25.040Z,8.27
2018-02-03T02:30:14.277Z,8.28
2018-02-03T02:31:02.958Z,8.21
2018-02-03T02:31:51.539Z,8.18
2018-02-03T02:32:40.188Z,8.14
2018-02-03T02:33:34.573Z,8.18
2018-02-03T02:34:22.217Z,8.28
2018-02-03T02:35:10.730Z,8.17
2018-02-03T02:35:59.760Z,8.17
2018-02-03T02:36:47.924Z,8.18
2018-02-03T02:37:36.430Z,8.24
2018-02-03T02:38:24.835Z,8.18
2018-02-03T02:39:14.174Z,8.06
2018-02-03T02:40:02.803Z,8.12
2018-02-03T02:40:51.093Z,8.06
2018-02-03T02:41:41.951Z,8.07
2018-02-03T02:42:30.277Z,8.2
2018-02-03T02:43:19.079Z,8.18
2018-02-03T02:44:08.912Z,8.17
2018-02-03T02:44:57.229Z,8.09
2018-02-03T02:45:41.741Z,8.1
2018-02-03T02:46:30.594Z,8.14
2018-02-03T02:47:18.196Z,8.1
2018-02-03T02:48:06.819Z,8.12
2018-02-03T02:48:55.225Z,8.04
2018-02-03T02:49:43.679Z,8.18
2018-02-03T02:50:32.133Z,8.17
2018-02-03T02:51:20.967Z,8.21
2018-02-03T02:52:09.285Z,8.17
2018-02-03T02:52:57.682Z,8.18
2018-02-03T02:53:46.056Z,8.34
2018-02-03T02:54:34.930Z,8.29
2018-02-03T02:55:23.575Z,8.32
2018-02-03T02:56:11.814Z,8.31
2018-02-03T02:57:00.741Z,8.27
2018-02-03T02:57:41.649Z,8.25
2018-02-03T02:58:22.046Z,8.34
2018-02-03T02:59:02.625Z,8.45
2018-02-03T02:59:43.013Z,8.46
2018-02-03T03:00:23.402Z,8.4
2018-02-03T03:01:03.736Z,8.36
2018-02-03T03:01:45.123Z,8.36
2018-02-03T03:02:25.636Z,8.4
2018-02-03T03:03:06.030Z,8.4
2018-02-03T03:03:46.609Z,8.37
2018-02-03T03:04:26.998Z,8.39
2018-02-03T03:05:07.393Z,8.42
2018-02-03T03:05:47.810Z,8.5
2018-02-03T03:06:28.160Z,8.55
2018-02-03T03:07:08.586Z,8.45
2018-02-03T03:07:48.988Z,8.52
2018-02-03T03:08:29.413Z,8.52
2018-02-03T03:09:09.829Z,8.52
2018-02-03T03:09:50.179Z,8.57
2018-02-03T03:10:30.665Z,8.55
2018-02-03T03:11:11.080Z,8.7
2018-02-03T03:11:51.574Z,8.67
2018-02-03T03:12:31.989Z,8.52
2018-02-03T03:13:12.410Z,8.64
2018-02-03T03:13:52.774Z,8.58
2018-02-03T03:14:33.156Z,8.45
2018-02-03T03:15:13.573Z,8.52
2018-02-03T03:15:53.956Z,8.61
2018-02-03T03:16:34.334Z,8.58
2018-02-03T03:17:14.767Z,8.61
2018-02-03T03:17:55.241Z,8.5
2018-02-03T03:18:35.653Z,8.58
2018-02-03T03:19:16.022Z,8.5
2018-02-03T03:19:56.414Z,8.52
2018-02-03T03:21:45.734Z,8.42
2018-02-03T03:22:32.877Z,8.2
2018-02-03T03:23:21.873Z,8.29
2018-02-03T03:24:10.520Z,8.14
2018-02-03T03:24:59.000Z,8.2
2018-02-03T03:25:47.462Z,8.17
2018-02-03T03:26:35.919Z,8.06
2018-02-03T03:27:24.705Z,8.04
2018-02-03T03:28:13.280Z,8.21
2018-02-03T03:29:01.587Z,8.17
2018-02-03T03:29:50.676Z,8.25
2018-02-03T03:30:38.640Z,8.22
2018-02-03T03:31:27.298Z,8.2
2018-02-03T03:32:15.876Z,8.2
2018-02-03T03:33:04.235Z,8.1
2018-02-03T03:33:49.681Z,8.14
2018-02-03T03:34:38.422Z,8.13
2018-02-03T03:35:26.780Z,8.2
2018-02-03T03:36:15.393Z,8.18
2018-02-03T03:37:04.006Z,8.09
2018-02-03T03:37:52.322Z,8.06
2018-02-03T03:38:38.916Z,8.14
2018-02-03T03:39:19.181Z,8.03
2018-02-03T03:39:59.539Z,7.99
2018-02-03T03:40:39.932Z,7.99
2018-02-03T03:41:20.292Z,7.96
2018-02-03T03:42:00.651Z,8.04
2018-02-03T03:42:41.685Z,8.12
2018-02-03T03:43:22.072Z,8.18
2018-02-03T03:44:02.476Z,8.17
2018-02-03T03:44:42.970Z,8.21
2018-02-03T03:45:23.358Z,8.2
2018-02-03T03:46:03.763Z,8.22
2018-02-03T03:46:44.140Z,8.18
2018-02-03T03:47:24.522Z,8.21
2018-02-03T03:48:04.908Z,8.21
2018-02-03T03:48:45.336Z,8.28
2018-02-03T03:49:25.699Z,8.29
2018-02-03T03:50:06.105Z,8.29
2018-02-03T03:50:46.536Z,8.32
2018-02-03T03:51:26.935Z,8.36
2018-02-03T03:52:07.356Z,8.47
2018-02-03T03:52:47.803Z,8.45
2018-02-03T03:53:28.182Z,8.49
2018-02-03T03:54:08.574Z,8.42
2018-02-03T03:54:48.967Z,8.55
2018-02-03T03:55:29.375Z,8.49
2018-02-03T03:56:09.729Z,8.47
2018-02-03T03:56:50.126Z,8.47
2018-02-03T03:57:30.594Z,8.45
2018-02-03T03:58:10.906Z,8.45
2018-02-03T03:58:51.291Z,8.42
2018-02-03T03:59:31.686Z,8.42
2018-02-03T04:00:12.073Z,8.46
2018-02-03T04:00:52.489Z,8.37
2018-02-03T04:01:32.845Z,8.31
2018-02-03T04:02:13.297Z,8.31
2018-02-03T04:02:53.669Z,8.32
2018-02-03T04:03:34.089Z,8.39
2018-02-03T04:04:14.522Z,8.47
2018-02-03T04:41:59.169Z,7.04
2018-02-03T04:44:25.072Z,7.09
2018-02-03T04:46:03.839Z,7.16
2018-02-03T04:47:39.589Z,7.3
2018-02-03T04:48:31.183Z,7.42
2018-02-03T04:50:24.266Z,7.58
2018-02-03T04:51:59.370Z,7.52
2018-02-03T04:52:47.495Z,7.62
2018-02-03T04:54:55.325Z,7.58
2018-02-03T04:55:49.682Z,7.57
2018-02-03T04:57:23.276Z,7.63
2018-02-03T04:58:17.531Z,7.7
2018-02-03T04:59:53.321Z,7.74
2018-02-03T05:01:51.949Z,7.69
2018-02-03T05:02:42.293Z,7.66
2018-02-03T05:04:46.347Z,7.6
2018-02-03T05:05:39.864Z,7.55
2018-02-03T05:06:32.141Z,7.66
2018-02-03T05:09:09.282Z,7.67
2018-02-03T05:11:16.696Z,7.76
2018-02-03T05:12:55.764Z,7.71
2018-02-03T05:13:46.038Z,7.69
2018-02-03T05:14:36.596Z,7.81
2018-02-03T05:16:36.321Z,7.82
2018-02-03T05:17:28.778Z,7.73
2018-02-03T05:18:21.127Z,7.62
2018-02-03T05:19:13.547Z,7.67
2018-02-03T05:20:06.452Z,7.7
2018-02-03T05:21:08.960Z,7.71
2018-02-03T05:22:02.215Z,7.77
2018-02-03T05:22:58.871Z,7.84
2018-02-03T05:23:58.646Z,7.84
2018-02-03T05:24:50.337Z,7.79
2018-02-03T05:25:42.321Z,7.95
2018-02-03T05:26:34.738Z,7.94
2018-02-03T05:27:26.702Z,7.92
2018-02-03T05:28:19.021Z,7.94
2018-02-03T05:29:11.840Z,7.96
2018-02-03T05:30:04.197Z,7.85
2018-02-03T05:30:57.048Z,7.84
2018-02-03T05:31:50.111Z,7.69
2018-02-03T05:32:42.211Z,7.63
2018-02-03T05:33:34.700Z,7.57
2018-02-03T05:34:26.868Z,7.6
2018-02-03T05:35:19.286Z,7.58
2018-02-03T05:36:12.298Z,7.55
2018-02-03T05:37:04.307Z,7.6
2018-02-03T05:37:56.646Z,7.51
2018-02-03T05:38:48.890Z,7.45
2018-02-03T05:39:42.098Z,7.45
2018-02-03T05:40:34.989Z,7.51
2018-02-03T05:41:27.526Z,7.34
2018-02-03T05:42:19.551Z,7.19
2018-02-03T05:43:11.726Z,7.23
2018-02-03T05:44:04.273Z,7.14
2018-02-03T05:44:56.837Z,7.26
2018-02-03T05:45:48.604Z,7.19
2018-02-03T05:46:40.310Z,7.23
2018-02-03T05:47:32.604Z,7.18
2018-02-03T05:48:24.838Z,7.14
2018-02-03T05:49:17.071Z,7.26
2018-02-03T05:50:09.230Z,7.23
2018-02-03T05:51:01.678Z,7.32
2018-02-03T05:51:54.851Z,7.36
2018-02-03T05:52:46.800Z,7.34
2018-02-03T05:53:39.189Z,7.39
2018-02-03T05:54:31.656Z,7.58
2018-02-03T05:55:24.689Z,7.58
2018-02-03T05:56:17.683Z,7.6
2018-02-03T05:57:10.079Z,7.66
2018-02-03T05:58:02.833Z,7.73
2018-02-03T05:58:54.953Z,7.82
2018-02-03T05:59:47.648Z,7.95
2018-02-03T06:00:40.671Z,7.94
2018-02-03T06:01:33.112Z,7.99
2018-02-03T06:02:25.664Z,8.04
2018-02-03T06:03:19.572Z,8.24
2018-02-03T06:04:11.577Z,8.24
2018-02-03T06:05:04.257Z,8.24
2018-02-03T06:05:56.584Z,8.25
2018-02-03T06:06:48.665Z,8.13
2018-02-03T06:07:33.774Z,8.04
2018-02-03T06:08:14.315Z,8.02
2018-02-03T06:08:55.154Z,7.94
2018-02-03T06:09:35.957Z,7.94
2018-02-03T06:10:17.225Z,7.95
2018-02-03T06:10:58.261Z,7.99
2018-02-03T06:11:40.708Z,8.02
2018-02-03T06:12:22.610Z,7.96
2018-02-03T06:14:26.067Z,8.02
2018-02-03T06:15:18.659Z,7.92
2018-02-03T06:16:10.837Z,8
2018-02-03T06:17:03.507Z,7.96
2018-02-03T06:17:56.914Z,7.79
2018-02-03T06:18:49.673Z,7.81
2018-02-03T06:19:42.560Z,7.84
2018-02-03T06:20:34.976Z,7.82
2018-02-03T06:21:27.661Z,7.74
2018-02-03T06:22:20.139Z,7.77
2018-02-03T06:23:13.134Z,7.81
2018-02-03T06:24:07.848Z,7.81
2018-02-03T06:25:00.149Z,7.77
2018-02-03T06:25:52.170Z,7.69
2018-02-03T06:26:44.682Z,7.7
2018-02-03T06:27:36.568Z,7.66
2018-02-03T06:28:29.686Z,7.63
2018-02-03T06:29:21.902Z,7.51
2018-02-03T06:30:13.980Z,7.54
2018-02-03T06:31:06.486Z,7.54
2018-02-03T06:31:58.990Z,7.51
2018-02-03T06:32:51.419Z,7.47
2018-02-03T06:33:44.007Z,7.6
2018-02-03T06:34:36.432Z,7.6
2018-02-03T06:35:28.940Z,7.6
2018-02-03T06:36:21.335Z,7.6
2018-02-03T06:37:13.707Z,7.66
2018-02-03T06:38:06.998Z,7.67
2018-02-03T06:38:59.086Z,7.63
2018-02-03T06:39:51.671Z,7.57
2018-02-03T06:40:44.087Z,7.58
2018-02-03T06:41:36.278Z,7.55
2018-02-03T06:42:28.640Z,7.76
2018-02-03T06:43:20.970Z,7.76
2018-02-03T06:44:13.490Z,7.79
2018-02-03T06:45:06.353Z,7.82
2018-02-03T06:45:58.910Z,7.79
2018-02-03T06:46:51.848Z,7.82
2018-02-03T06:47:44.600Z,7.81
2018-02-03T06:48:37.816Z,7.69
2018-02-03T06:49:30.010Z,7.81
2018-02-03T06:50:22.693Z,7.79
2018-02-03T06:51:15.424Z,7.76
2018-02-03T06:52:09.021Z,7.76
2018-02-03T06:53:01.915Z,7.74
2018-02-03T06:53:55.053Z,7.74
2018-02-03T06:54:48.403Z,7.6
2018-02-03T06:55:41.468Z,7.66
2018-02-03T06:56:35.167Z,7.5
2018-02-03T06:57:27.449Z,7.44
2018-02-03T06:58:19.612Z,7.33
2018-02-03T06:59:13.027Z,7.26
2018-02-03T07:00:05.520Z,7.19
2018-02-03T07:00:58.029Z,7.09
2018-02-03T07:01:50.101Z,7.01
2018-02-03T07:02:42.302Z,6.96
2018-02-03T07:03:34.400Z,7.01
2018-02-03T07:04:26.733Z,6.89
2018-02-03T07:05:19.536Z,6.86
2018-02-03T07:06:13.003Z,6.73
2018-02-03T07:07:05.584Z,6.68
2018-02-03T07:07:58.042Z,6.73
2018-02-03T07:08:50.325Z,6.65
2018-02-03T07:09:43.683Z,6.58
2018-02-03T07:10:36.120Z,6.5
2018-02-03T07:11:29.055Z,6.48
2018-02-03T07:12:23.105Z,6.46
2018-02-03T07:13:16.229Z,6.51
2018-02-03T07:14:10.151Z,6.45
2018-02-03T07:15:02.543Z,6.48
2018-02-03T07:15:54.947Z,6.39
2018-02-03T07:16:47.527Z,6.32
2018-02-03T07:17:41.192Z,6.36
2018-02-03T07:18:34.346Z,6.35
2018-02-03T07:19:24.525Z,6.28
2018-02-03T07:20:05.081Z,6.27
2018-02-03T07:20:45.851Z,6.27
2018-02-03T07:21:26.646Z,6.3
2018-02-03T07:22:07.597Z,6.38
2018-02-03T07:22:48.313Z,6.35
2018-02-03T07:23:29.649Z,6.32
2018-02-03T07:24:10.528Z,6.33
2018-02-03T07:24:51.220Z,6.3
2018-02-03T07:25:32.324Z,6.35
2018-02-03T07:26:13.531Z,6.35
2018-02-03T07:26:54.139Z,6.33
2018-02-03T07:27:35.067Z,6.36
2018-02-03T07:28:15.669Z,6.39
2018-02-03T07:28:56.650Z,6.33
2018-02-03T07:29:37.976Z,6.32
2018-02-03T07:30:19.075Z,6.24
2018-02-03T07:30:59.866Z,6.32
2018-02-03T07:31:41.201Z,6.25
2018-02-03T07:32:22.417Z,6.25
2018-02-03T07:33:03.378Z,6.35
2018-02-03T07:33:44.843Z,6.27
2018-02-03T07:34:25.931Z,6.25
2018-02-03T07:35:06.804Z,6.28
2018-02-03T07:35:47.581Z,6.32
2018-02-03T07:36:28.205Z,6.25
2018-02-03T07:37:09.164Z,6.21
2018-02-03T07:37:49.704Z,6.3
2018-02-03T07:38:31.177Z,6.21
2018-02-03T07:39:12.226Z,6.2
2018-02-03T07:39:52.661Z,6.21
2018-02-03T07:40:33.303Z,6.14
2018-02-03T07:41:14.088Z,6.25
2018-02-03T07:41:55.171Z,6.11
2018-02-03T07:42:36.009Z,6.19
2018-02-03T07:43:16.859Z,6.19
2018-02-03T07:43:57.288Z,6.1
2018-02-03T07:44:37.943Z,6.1
2018-02-03T07:45:18.701Z,6.08
2018-02-03T07:45:59.042Z,6.27
2018-02-03T07:46:39.877Z,6.25
2018-02-03T07:47:20.699Z,6.14
2018-02-03T07:48:01.663Z,6.3
2018-02-03T07:48:42.288Z,6.14
2018-02-03T07:49:23.036Z,6.16
2018-02-03T07:50:03.357Z,6.27
2018-02-03T07:50:43.870Z,6.3
2018-02-03T07:51:24.537Z,6.3
2018-02-03T07:52:07.774Z,6.25
2018-02-03T07:52:48.382Z,6.27
2018-02-03T07:53:29.095Z,6.24
2018-02-03T07:54:09.971Z,6.38
2018-02-03T07:54:51.090Z,6.28
2018-02-03T07:55:31.608Z,6.27
2018-02-03T07:56:12.224Z,6.27
2018-02-03T07:56:53.231Z,6.25
2018-02-03T07:57:33.791Z,6.21
2018-02-03T07:58:14.505Z,6.2
2018-02-03T07:58:55.269Z,6.21
2018-02-03T07:59:36.128Z,6.25
2018-02-03T08:00:17.111Z,6.27
2018-02-03T08:00:57.535Z,6.27
2018-02-03T08:01:38.107Z,6.25
2018-02-03T08:02:18.725Z,6.25
2018-02-03T08:02:59.297Z,6.2
2018-02-03T08:03:39.989Z,6.36
2018-02-03T08:04:20.735Z,6.46
2018-02-03T08:05:01.284Z,6.46
2018-02-03T08:05:41.868Z,6.54
2018-02-03T08:06:22.390Z,6.46
2018-02-03T08:07:03.066Z,6.5
2018-02-03T08:07:43.498Z,6.43
2018-02-03T08:08:24.390Z,6.54
2018-02-03T08:09:04.908Z,6.53
2018-02-03T08:09:45.452Z,6.53
2018-02-03T08:10:26.306Z,6.55
2018-02-03T08:11:06.959Z,6.58
2018-02-03T08:11:47.788Z,6.58
2018-02-03T08:12:28.247Z,6.57
2018-02-03T08:13:09.266Z,6.55
2018-02-03T08:13:50.084Z,6.55
2018-02-03T08:14:30.888Z,6.61
2018-02-03T08:15:11.431Z,6.54
2018-02-03T08:15:51.913Z,6.58
2018-02-03T08:16:32.467Z,6.45
2018-02-03T08:17:13.545Z,6.51
2018-02-03T08:17:54.161Z,6.48
2018-02-03T08:18:34.760Z,6.5
2018-02-03T08:19:15.714Z,6.45
2018-02-03T08:19:56.222Z,6.45
2018-02-03T08:20:37.246Z,6.43
2018-02-03T08:21:18.017Z,6.3
2018-02-03T08:21:59.245Z,6.32
2018-02-03T08:22:41.007Z,6.27
2018-02-03T08:23:22.137Z,6.3
2018-02-03T08:24:03.106Z,6.16
2018-02-03T08:24:43.917Z,6.17
2018-02-03T08:25:25.388Z,6.17
2018-02-03T08:26:06.405Z,6.13
2018-02-03T08:26:48.006Z,6.19
2018-02-03T08:27:29.335Z,6.02
2018-02-03T08:28:10.801Z,5.9
2018-02-03T08:28:51.881Z,5.92
2018-02-03T08:29:32.246Z,5.8
2018-02-03T08:30:13.240Z,5.67
2018-02-03T08:30:54.368Z,5.62
2018-02-03T08:31:35.514Z,5.55
2018-02-03T08:32:16.984Z,5.6
2018-02-03T08:32:57.738Z,5.47
2018-02-03T08:33:38.554Z,5.44
2018-02-03T08:34:19.457Z,5.41
2018-02-03T08:35:00.246Z,5.26
2018-02-03T08:35:41.005Z,5.27
2018-02-03T08:36:21.888Z,5.29
2018-02-03T08:37:02.685Z,5.22
2018-02-03T08:37:43.617Z,5.32
2018-02-03T08:38:24.123Z,5.26
2018-02-03T08:39:04.850Z,5.3
2018-02-03T08:39:45.202Z,5.33
2018-02-03T08:40:25.775Z,5.35
2018-02-03T08:41:06.958Z,5.42
2018-02-03T08:41:47.476Z,5.48
2018-02-03T08:42:28.070Z,5.48
2018-02-03T08:43:08.709Z,5.51
2018-02-03T08:43:49.358Z,5.62
2018-02-03T08:44:29.794Z,5.63
2018-02-03T08:45:10.310Z,5.65
2018-02-03T08:45:51.125Z,5.73
2018-02-03T08:46:31.606Z,5.74
2018-02-03T08:47:11.980Z,5.81
2018-02-03T08:47:53.096Z,5.92
2018-02-03T08:48:33.322Z,5.84
2018-02-03T08:49:13.970Z,5.93
2018-02-03T08:49:54.833Z,5.93
2018-02-03T08:50:35.306Z,6.01
2018-02-03T08:51:15.946Z,6.03
2018-02-03T08:51:56.710Z,5.98
2018-02-03T08:52:37.201Z,6.11
2018-02-03T08:53:17.584Z,6.2
2018-02-03T08:53:58.241Z,6.1
2018-02-03T08:54:38.999Z,6.32
2018-02-03T08:55:19.421Z,6.35
2018-02-03T08:55:59.941Z,6.48
2018-02-03T08:56:40.411Z,6.5
2018-02-03T08:57:21.005Z,6.46
2018-02-03T08:58:01.639Z,6.51
2018-02-03T08:58:42.145Z,6.55
2018-02-03T08:59:22.643Z,6.68
2018-02-03T09:00:03.309Z,6.61
2018-02-03T09:00:43.800Z,6.64
2018-02-03T09:01:24.235Z,6.71
2018-02-03T09:02:05.137Z,6.71
2018-02-03T09:02:45.608Z,6.69
2018-02-03T09:03:26.298Z,6.53
2018-02-03T09:04:07.471Z,6.71
2018-02-03T09:04:48.040Z,6.61
2018-02-03T09:05:28.517Z,6.68
2018-02-03T09:06:09.254Z,6.76
2018-02-03T09:06:50.450Z,6.69
2018-02-03T09:07:31.147Z,6.81
2018-02-03T09:08:11.924Z,6.89
2018-02-03T09:08:52.286Z,6.83
2018-02-03T09:09:32.796Z,6.75
2018-02-03T09:10:13.613Z,6.68
2018-02-03T09:10:54.062Z,6.68
2018-02-03T09:11:34.743Z,6.57
2018-02-03T09:12:15.534Z,6.55
2018-02-03T09:12:56.328Z,6.53
2018-02-03T09:13:38.071Z,6.45
2018-02-03T09:14:19.094Z,6.51
2018-02-03T09:14:59.876Z,6.48
2018-02-03T09:15:40.637Z,6.48
2018-02-03T09:16:21.234Z,6.45
2018-02-03T09:17:02.356Z,6.5
2018-02-03T09:17:43.485Z,6.53
2018-02-03T09:18:24.012Z,6.48
2018-02-03T09:19:04.552Z,6.54
2018-02-03T09:19:45.236Z,6.54
2018-02-03T09:20:25.744Z,6.53
2018-02-03T09:21:06.643Z,6.46
2018-02-03T09:21:47.435Z,6.53
2018-02-03T09:22:28.469Z,6.58
2018-02-03T09:23:09.117Z,6.53
2018-02-03T09:23:49.927Z,6.6
2018-02-03T09:24:30.956Z,6.54
2018-02-03T09:25:11.717Z,6.64
2018-02-03T09:25:53.148Z,6.53
2018-02-03T09:26:34.358Z,6.65
2018-02-03T09:27:15.029Z,6.68
2018-02-03T09:28:02.238Z,6.65
2018-02-03T09:28:42.828Z,6.73
2018-02-03T09:29:23.359Z,6.65
2018-02-03T09:30:04.108Z,6.64
2018-02-03T09:30:44.540Z,6.64
2018-02-03T09:31:25.423Z,6.73
2018-02-03T09:32:05.847Z,6.68
2018-02-03T09:32:46.608Z,6.71
2018-02-03T09:33:27.135Z,6.83
2018-02-03T09:34:07.654Z,6.83
2018-02-03T09:34:48.936Z,6.83
2018-02-03T09:35:31.165Z,6.87
2018-02-03T09:36:21.774Z,6.86
2018-02-03T09:37:02.276Z,6.93
2018-02-03T09:37:42.784Z,6.97
2018-02-03T09:38:23.052Z,7.09
2018-02-03T09:39:08.272Z,7.07
2018-02-03T09:42:08.177Z,7.29
2018-02-03T09:43:00.995Z,7.48
2018-02-03T09:43:53.500Z,7.58
2018-02-03T09:44:45.826Z,7.76
2018-02-03T09:45:42.628Z,7.85
2018-02-03T09:46:33.038Z,7.95
2018-02-03T09:47:26.515Z,8.13
2018-02-03T09:48:19.894Z,8.46
2018-02-03T09:49:22.787Z,8.73
2018-02-03T09:50:22.710Z,8.94
2018-02-03T09:51:24.183Z,9.1
2018-02-03T09:52:21.869Z,9.15
2018-02-03T09:53:14.233Z,9.08
2018-02-03T09:53:54.441Z,9.2
2018-02-03T09:54:34.864Z,9.23
2018-02-03T09:55:15.280Z,9.19
2018-02-03T09:55:55.711Z,9.26
2018-02-03T09:56:36.076Z,9.3
2018-02-03T09:57:16.534Z,9.3
2018-02-03T09:57:56.921Z,9.2
2018-02-03T09:58:37.352Z,9.24
2018-02-03T09:59:17.771Z,9.19
2018-02-03T09:59:58.109Z,9.2
2018-02-03T10:00:38.525Z,9.3
2018-02-03T10:01:18.926Z,9.32
2018-02-03T10:01:59.357Z,9.38
2018-02-03T10:02:39.810Z,9.41
2018-02-03T10:03:20.223Z,9.56
2018-02-03T10:04:00.685Z,9.65
2018-02-03T10:04:41.087Z,9.78
2018-02-03T10:42:35.140Z,10.28
2018-02-03T10:43:20.562Z,10.36
2018-02-03T10:44:00.753Z,10.35
2018-02-03T10:44:45.178Z,10.26
2018-02-03T10:45:25.674Z,10.32
2018-02-03T10:46:05.952Z,10.26
2018-02-03T10:46:46.371Z,10.25
2018-02-03T10:47:27.639Z,10.32
2018-02-03T10:48:08.004Z,10.32
2018-02-03T10:48:48.571Z,10.44
2018-02-03T10:49:29.964Z,10.39
2018-02-03T10:50:15.840Z,10.28
2018-02-03T10:50:57.849Z,10.17
2018-02-03T10:51:41.575Z,10.26
2018-02-03T10:52:22.550Z,10.26
2018-02-03T10:53:03.443Z,10.29
2018-02-03T10:53:44.878Z,10.24
2018-02-03T10:54:27.402Z,10.26
2018-02-03T10:55:07.949Z,10.32
2018-02-03T10:59:27.025Z,10.24
2018-02-03T11:00:07.836Z,10.26
2018-02-03T11:02:25.387Z,10.49
2018-02-03T11:03:21.465Z,10.68
2018-02-03T11:04:26.311Z,10.86
2018-02-03T11:05:33.004Z,10.98
2018-02-03T11:06:27.117Z,11.13
2018-02-03T11:07:18.916Z,11.11
2018-02-03T11:08:14.038Z,11.06
2018-02-03T11:09:07.502Z,11.06
2018-02-03T11:09:59.343Z,11.05
2018-02-03T11:10:49.519Z,11.09
2018-02-03T11:11:29.571Z,11.13
2018-02-03T11:12:10.055Z,11.38
2018-02-03T11:12:50.559Z,11.59
2018-02-03T11:13:31.022Z,11.7
2018-02-03T11:14:11.523Z,11.75
2018-02-03T11:14:52.087Z,11.7
2018-02-03T11:15:32.492Z,11.9
2018-02-03T11:16:13.083Z,11.96
2018-02-03T11:16:56.358Z,11.82
2018-02-03T11:17:37.024Z,11.9
2018-02-03T11:18:17.292Z,11.97
2018-02-03T11:18:57.811Z,12.05
2018-02-03T11:19:38.437Z,12.13
2018-02-03T11:20:18.857Z,12.26
2018-02-03T11:25:13.068Z,12.7
2018-02-03T11:26:06.470Z,12.61
2018-02-03T11:26:59.042Z,12.7
2018-02-03T11:27:51.692Z,12.77
2018-02-03T11:28:43.978Z,12.7
2018-02-03T11:29:36.169Z,12.71
2018-02-03T11:30:28.429Z,12.89
2018-02-03T11:31:21.042Z,12.98
2018-02-03T11:32:13.171Z,12.88
2018-02-03T11:33:06.604Z,12.74
2018-02-03T11:33:58.783Z,12.63
2018-02-03T11:34:51.263Z,12.56
2018-02-03T11:35:43.035Z,12.58
2018-02-03T11:36:35.636Z,12.43
2018-02-03T11:37:27.839Z,12.43
2018-02-03T11:38:19.986Z,12.29
2018-02-03T11:39:12.527Z,12.19
2018-02-03T11:40:04.661Z,11.93
2018-02-03T11:40:57.697Z,11.94
2018-02-03T11:41:50.931Z,11.69
2018-02-03T11:42:44.286Z,11.53
2018-02-03T11:43:36.724Z,11.38
2018-02-03T11:44:30.261Z,11.3
2018-02-03T11:45:23.533Z,11.33
2018-02-03T11:46:15.597Z,11.31
2018-02-03T11:47:07.784Z,11.39
2018-02-03T11:48:00.129Z,11.3
2018-02-03T11:48:52.196Z,11.31
2018-02-03T11:49:44.599Z,11.23
2018-02-03T11:50:38.157Z,11.27
2018-02-03T11:51:24.021Z,11.24
2018-02-03T11:52:04.451Z,11.12
2018-02-03T11:52:44.789Z,11.11
2018-02-03T11:53:25.300Z,11.09
2018-02-03T11:54:05.606Z,11.19
2018-02-03T11:54:46.039Z,11.2
2018-02-03T11:55:26.484Z,11.16
2018-02-03T11:56:06.912Z,11.23
2018-02-03T11:56:47.341Z,11.2
2018-02-03T11:57:27.724Z,11.3
2018-02-03T11:58:08.115Z,11.39
2018-02-03T11:58:48.532Z,11.33
2018-02-03T11:59:29.026Z,11.26
2018-02-03T12:00:09.365Z,11.19
2018-02-03T12:00:49.788Z,11.16
2018-02-03T12:01:30.170Z,11.2